Time;durP1;ratioP1;P1;durP2;ratioP2;P2;SDS_P1;SDS_P2;PMS_P1;PMS_P2;Temp;Humidity;BMP_temperature;BMP_pressure;BME280_temperature;BME280_humidity;BME280_pressure;Samples;Min_cycle;Max_cycle;Signal;HPM_P1;HPM_P2
2024/01/09 00:02:11;;;;;;;1.50;1.40;;;-3.40;99.90;;;;;;5033113;28;20041;-73
2024/01/09 00:04:37;;;;;;;1.92;1.83;;;-3.40;99.90;;;;;;5033117;28;20050;-69
2024/01/09 00:07:03;;;;;;;1.50;1.40;;;-3.40;99.90;;;;;;5033164;28;20048;-70
2024/01/09 00:09:28;;;;;;;1.50;1.40;;;-3.40;99.90;;;;;;5033501;28;20107;-71
2024/01/09 00:11:54;;;;;;;1.50;1.40;;;-3.40;99.90;;;;;;5033211;28;20046;-72
2024/01/09 00:14:19;;;;;;;1.48;1.38;;;-3.50;99.90;;;;;;5033111;28;20085;-70
2024/01/09 00:16:45;;;;;;;1.43;1.33;;;-3.50;99.90;;;;;;5033095;28;20033;-70
2024/01/09 00:19:11;;;;;;;1.60;1.50;;;-3.40;99.90;;;;;;5034083;28;20094;-71
2024/01/09 00:21:39;;;;;;;4.20;3.93;;;-3.50;99.90;;;;;;5036806;28;20538;-71
2024/01/09 00:24:05;;;;;;;1.40;1.30;;;-3.40;99.90;;;;;;5036787;28;20048;-70
2024/01/09 00:26:30;;;;;;;1.50;1.40;;;-3.50;99.90;;;;;;5036986;28;20034;-71
2024/01/09 00:28:56;;;;;;;1.50;1.40;;;-3.00;99.90;;;;;;5036902;28;20401;-71
2024/01/09 00:31:21;;;;;;;1.50;1.40;;;-3.60;99.90;;;;;;5036914;28;20045;-71
2024/01/09 00:33:47;;;;;;;1.50;1.40;;;-3.60;99.90;;;;;;5036734;28;20061;-72
2024/01/09 00:36:12;;;;;;;1.50;1.40;;;-3.60;99.90;;;;;;5036621;28;20120;-70
2024/01/09 00:38:38;;;;;;;1.50;1.40;;;-3.60;99.90;;;;;;5036610;28;20104;-72
2024/01/09 00:41:04;;;;;;;1.48;1.38;;;-3.60;99.90;;;;;;5036628;28;20038;-71
2024/01/09 00:43:29;;;;;;;1.50;1.40;;;-3.50;99.90;;;;;;5036354;28;20470;-70
2024/01/09 00:45:55;;;;;;;1.40;1.30;;;-3.80;99.90;;;;;;5036490;28;20171;-70
2024/01/09 00:48:20;;;;;;;1.50;1.40;;;-3.70;99.90;;;;;;5036191;28;20046;-71
2024/01/09 00:50:46;;;;;;;1.50;1.40;;;-3.70;99.90;;;;;;5036293;28;20042;-70
2024/01/09 00:53:12;;;;;;;1.50;1.40;;;-3.70;99.90;;;;;;5036386;28;20042;-69
2024/01/09 00:55:37;;;;;;;1.40;1.30;;;-3.70;99.90;;;;;;5036330;28;20045;-71
2024/01/09 00:58:03;;;;;;;1.50;1.40;;;-3.80;99.90;;;;;;5036145;28;20041;-69
2024/01/09 01:00:29;;;;;;;1.60;1.50;;;-3.70;99.90;;;;;;5036374;28;20049;-70
2024/01/09 01:02:54;;;;;;;1.47;1.37;;;-3.70;99.90;;;;;;5036295;28;20129;-70
2024/01/09 01:05:20;;;;;;;1.50;1.40;;;-3.70;99.90;;;;;;5036052;28;20147;-70
2024/01/09 01:07:45;;;;;;;1.50;1.40;;;-3.80;99.90;;;;;;5036017;28;20061;-69
2024/01/09 01:10:14;;;;;;;1.50;1.40;;;-3.80;99.90;;;;;;5036092;28;20188;-71
2024/01/09 01:12:40;;;;;;;1.50;1.40;;;-3.80;99.90;;;;;;5035946;28;20045;-69
2024/01/09 01:15:06;;;;;;;1.50;1.40;;;-3.80;99.90;;;;;;5035982;28;20050;-70
2024/01/09 01:17:32;;;;;;;1.50;1.40;;;-3.80;99.90;;;;;;5035851;28;20397;-71
2024/01/09 01:19:58;;;;;;;1.60;1.50;;;-4.10;99.90;;;;;;5035844;28;20041;-71
2024/01/09 01:22:23;;;;;;;1.40;1.30;;;-3.90;99.90;;;;;;5035836;28;20474;-71
2024/01/09 01:24:49;;;;;;;1.50;1.40;;;-4.30;99.90;;;;;;5035779;28;20045;-70
2024/01/09 01:27:14;;;;;;;1.50;1.40;;;-4.00;99.90;;;;;;5035661;28;20132;-70
2024/01/09 01:29:40;;;;;;;1.50;1.40;;;-4.00;99.90;;;;;;5035477;28;20128;-70
2024/01/09 01:32:09;;;;;;;1.60;1.50;;;-4.00;99.90;;;;;;5035669;28;20045;-69
2024/01/09 01:34:35;;;;;;;1.52;1.42;;;-4.40;99.90;;;;;;5035472;28;20136;-70
2024/01/09 01:37:01;;;;;;;1.60;1.50;;;-4.00;99.90;;;;;;5035436;28;20099;-70
2024/01/09 01:39:26;;;;;;;1.50;1.40;;;-4.00;99.90;;;;;;5035585;28;20474;-71
2024/01/09 01:41:52;;;;;;;1.45;1.35;;;-4.10;99.90;;;;;;5035738;28;20076;-69
2024/01/09 01:44:18;;;;;;;1.50;1.40;;;-4.10;99.90;;;;;;5035489;28;20114;-70
2024/01/09 01:46:45;;;;;;;1.50;1.40;;;-2.60;99.90;;;;;;5035342;28;20428;-70
2024/01/09 01:49:13;;;;;;;1.50;1.40;;;-4.10;99.90;;;;;;5035233;28;20041;-70
2024/01/09 01:51:41;;;;;;;1.45;1.35;;;-4.10;99.90;;;;;;5035452;28;20163;-69
2024/01/09 01:54:07;;;;;;;1.50;1.40;;;-4.10;99.90;;;;;;5035227;28;20091;-71
2024/01/09 01:56:33;;;;;;;1.57;1.47;;;-4.10;99.90;;;;;;5035169;28;20072;-71
2024/01/09 01:58:59;;;;;;;1.50;1.40;;;-4.10;99.90;;;;;;5035128;28;20053;-71
2024/01/09 02:01:25;;;;;;;1.50;1.40;;;-4.10;99.90;;;;;;5035034;28;20088;-72
2024/01/09 02:03:51;;;;;;;1.50;1.40;;;-4.10;99.90;;;;;;5034975;28;20053;-71
2024/01/09 02:06:17;;;;;;;1.50;1.40;;;-4.10;99.90;;;;;;5035223;28;20098;-71
2024/01/09 02:08:43;;;;;;;1.50;1.40;;;-4.10;99.90;;;;;;5035276;28;20057;-71
2024/01/09 02:11:10;;;;;;;1.60;1.50;;;-4.10;99.90;;;;;;5034845;28;20088;-71
2024/01/09 02:13:36;;;;;;;1.50;1.40;;;-4.10;99.90;;;;;;5034897;28;20425;-71
2024/01/09 02:16:02;;;;;;;1.50;1.40;;;-4.50;99.90;;;;;;5034876;28;20041;-70
2024/01/09 02:18:28;;;;;;;1.60;1.50;;;-4.10;99.90;;;;;;5034727;28;20081;-72
2024/01/09 02:20:53;;;;;;;1.50;1.40;;;-4.20;99.90;;;;;;5034729;28;20367;-71
2024/01/09 02:23:19;;;;;;;1.50;1.40;;;-4.20;99.90;;;;;;5034431;28;20136;-70
2024/01/09 02:25:46;;;;;;;1.60;1.50;;;-4.20;99.90;;;;;;5034597;28;20053;-71
2024/01/09 02:28:24;;;;;;;3.67;3.47;;;-4.20;99.90;;;;;;5034626;28;20098;-70
2024/01/09 02:30:53;;;;;;;1.50;1.40;;;-4.20;99.90;;;;;;5034559;28;20045;-71
2024/01/09 02:33:19;;;;;;;2.67;1.52;;;-4.20;99.90;;;;;;5034385;28;20053;-71
2024/01/09 02:35:45;;;;;;;1.60;1.50;;;-4.20;99.90;;;;;;5034476;28;20052;-72
2024/01/09 02:38:10;;;;;;;1.60;1.50;;;-4.50;99.90;;;;;;5034377;28;20049;-71
2024/01/09 02:40:36;;;;;;;1.60;1.50;;;-4.30;99.90;;;;;;5034355;28;20045;-72
2024/01/09 02:43:02;;;;;;;1.50;1.40;;;-4.30;99.90;;;;;;5033719;28;20128;-72
2024/01/09 02:45:27;;;;;;;1.60;1.50;;;-4.30;99.90;;;;;;5034507;28;20057;-72
2024/01/09 02:47:53;;;;;;;1.50;1.40;;;-4.30;99.90;;;;;;5034083;28;20496;-72
2024/01/09 02:50:20;;;;;;;1.50;1.40;;;-4.30;99.90;;;;;;5034168;28;20041;-71
2024/01/09 02:52:46;;;;;;;1.50;1.40;;;-4.40;99.90;;;;;;5034107;28;20133;-72
2024/01/09 02:55:12;;;;;;;1.52;1.42;;;-4.40;99.90;;;;;;5034109;28;20052;-71
2024/01/09 02:57:40;;;;;;;1.60;1.50;;;-4.40;99.90;;;;;;5034072;28;20432;-71
2024/01/09 03:00:09;;;;;;;1.60;1.50;;;-4.30;99.90;;;;;;5033999;28;20460;-72
2024/01/09 03:02:35;;;;;;;1.70;1.60;;;-4.40;99.90;;;;;;5034320;28;20057;-72
2024/01/09 03:05:03;;;;;;;1.60;1.50;;;-4.80;99.90;;;;;;5033972;28;20393;-71
2024/01/09 03:07:28;;;;;;;1.60;1.50;;;-4.50;99.90;;;;;;5033817;28;20045;-72
2024/01/09 03:09:54;;;;;;;1.50;1.40;;;-4.50;99.90;;;;;;5034060;28;20049;-71
2024/01/09 03:12:19;;;;;;;1.70;1.60;;;-4.50;99.90;;;;;;5033673;28;20485;-72
2024/01/09 03:14:45;;;;;;;1.50;1.40;;;-4.50;99.90;;;;;;5033699;28;20049;-71
2024/01/09 03:17:11;;;;;;;1.60;1.50;;;-4.50;99.90;;;;;;5033766;28;20056;-71
2024/01/09 03:19:37;;;;;;;1.60;1.50;;;-4.50;99.90;;;;;;5034054;28;20049;-71
2024/01/09 03:22:03;;;;;;;5.53;5.23;;;-4.80;99.90;;;;;;5033625;28;20068;-71
2024/01/09 03:24:28;;;;;;;1.60;1.50;;;-4.50;99.90;;;;;;5033569;28;20045;-73
2024/01/09 03:26:54;;;;;;;1.60;1.50;;;-4.50;99.90;;;;;;5033382;28;20541;-72
2024/01/09 03:29:20;;;;;;;1.50;1.40;;;-4.50;99.90;;;;;;5033614;28;20057;-71
2024/01/09 03:31:45;;;;;;;1.50;1.40;;;-4.50;99.90;;;;;;5033142;28;20477;-72
2024/01/09 03:34:11;;;;;;;1.50;1.40;;;-4.60;99.90;;;;;;5015751;28;20124;-72
2024/01/09 03:36:38;;;;;;;1.50;1.40;;;-4.80;99.90;;;;;;5033067;28;20401;-72
2024/01/09 03:39:04;;;;;;;1.50;1.40;;;-4.60;99.90;;;;;;5033317;28;20057;-71
2024/01/09 03:41:31;;;;;;;1.60;1.50;;;-4.40;99.90;;;;;;5033581;28;20135;-71
2024/01/09 03:43:57;;;;;;;1.50;1.40;;;-4.60;99.90;;;;;;5033359;28;20112;-72
2024/01/09 03:46:23;;;;;;;1.60;1.50;;;-4.60;99.90;;;;;;5033161;28;20084;-72
2024/01/09 03:48:48;;;;;;;1.60;1.50;;;-5.00;99.90;;;;;;5033334;28;20088;-71
2024/01/09 03:51:14;;;;;;;15.63;13.73;;;-4.40;99.90;;;;;;5033716;28;20060;-72
2024/01/09 03:53:40;;;;;;;1.60;1.50;;;;;;;;;;5033765;28;20424;-72
2024/01/09 03:56:06;;;;;;;1.60;1.50;;;-4.70;99.90;;;;;;5037556;28;20444;-72
2024/01/09 03:58:32;;;;;;;1.50;1.40;;;-4.70;99.90;;;;;;5037331;28;20050;-71
2024/01/09 04:00:57;;;;;;;1.60;1.50;;;-4.70;99.90;;;;;;5037224;28;20107;-71
2024/01/09 04:03:23;;;;;;;1.60;1.50;;;-4.70;99.90;;;;;;5037321;28;20482;-71
2024/01/09 04:05:48;;;;;;;1.60;1.50;;;-5.20;99.90;;;;;;5037241;28;20420;-71
2024/01/09 04:08:14;;;;;;;1.50;1.40;;;-4.30;99.90;;;;;;5037117;28;20044;-71
2024/01/09 04:10:40;;;;;;;1.60;1.50;;;-4.80;99.90;;;;;;5037246;28;20050;-71
2024/01/09 04:13:06;;;;;;;1.70;1.60;;;;;;;;;;5037086;28;20038;-72
2024/01/09 04:15:34;;;;;;;1.50;1.40;;;-4.90;99.90;;;;;;5037013;28;20125;-71
2024/01/09 04:18:01;;;;;;;1.40;1.30;;;-5.10;99.90;;;;;;5036905;28;20620;-72
2024/01/09 04:20:26;;;;;;;1.50;1.40;;;-4.90;99.90;;;;;;5037369;28;20049;-71
2024/01/09 04:22:52;;;;;;;1.60;1.50;;;-4.90;99.90;;;;;;5037002;28;20049;-72
2024/01/09 04:25:18;;;;;;;1.60;1.50;;;-4.90;99.90;;;;;;5036861;28;20052;-71
2024/01/09 04:27:43;;;;;;;1.60;1.50;;;-5.10;99.90;;;;;;5036785;28;20119;-71
2024/01/09 04:30:10;;;;;;;1.70;1.60;;;-4.90;99.90;;;;;;5036808;28;20095;-70
2024/01/09 04:32:36;;;;;;;1.70;1.60;;;-4.90;99.90;;;;;;5018994;28;20041;-71
2024/01/09 04:35:01;;;;;;;1.60;1.50;;;-5.00;99.90;;;;;;5036743;28;20042;-72
2024/01/09 04:37:27;;;;;;;1.60;1.50;;;-5.00;99.90;;;;;;5036968;28;20121;-71
2024/01/09 04:39:52;;;;;;;1.70;1.60;;;-4.90;99.90;;;;;;5036621;28;20049;-71
2024/01/09 04:42:18;;;;;;;1.70;1.60;;;-5.00;99.90;;;;;;5036601;28;20049;-71
2024/01/09 04:44:43;;;;;;;1.60;1.50;;;-4.90;99.90;;;;;;5036079;28;20456;-71
2024/01/09 04:47:13;;;;;;;1.60;1.50;;;-5.00;99.90;;;;;;5036269;28;20056;-72
2024/01/09 04:49:38;;;;;;;1.60;1.50;;;-5.30;99.90;;;;;;5036597;28;20088;-72
2024/01/09 04:52:05;;;;;;;1.70;1.60;;;-5.00;99.90;;;;;;5036420;28;20081;-72
2024/01/09 04:54:31;;;;;;;;;;;-5.00;99.90;;;;;;5036777;28;20037;-71
2024/01/09 04:56:56;;;;;;;1.60;1.50;;;-4.70;99.90;;;;;;5036437;28;20323;-71
2024/01/09 04:59:22;;;;;;;1.60;1.50;;;-5.00;99.90;;;;;;5036219;28;20048;-71
2024/01/09 05:01:51;;;;;;;1.67;1.57;;;-5.10;99.90;;;;;;5036283;28;20081;-71
2024/01/09 05:04:16;;;;;;;1.60;1.50;;;-5.10;99.90;;;;;;5035926;28;20110;-71
2024/01/09 05:06:42;;;;;;;1.60;1.50;;;-5.10;99.90;;;;;;5035511;28;20552;-73
2024/01/09 05:09:07;;;;;;;1.50;1.40;;;-5.40;99.90;;;;;;5036146;28;20076;-72
2024/01/09 05:11:33;;;;;;;1.80;1.70;;;-5.10;99.90;;;;;;5036033;28;20111;-71
2024/01/09 05:13:59;;;;;;;1.57;1.47;;;-5.20;99.90;;;;;;5036005;28;20396;-71
2024/01/09 05:16:26;;;;;;;1.63;1.53;;;-5.20;99.90;;;;;;5035740;28;20042;-71
2024/01/09 05:18:51;;;;;;;1.60;1.50;;;-5.20;99.90;;;;;;5036104;28;20397;-71
2024/01/09 05:21:17;;;;;;;1.60;1.50;;;-5.20;99.90;;;;;;5036020;28;20049;-72
2024/01/09 05:23:42;;;;;;;1.60;1.50;;;-5.20;99.90;;;;;;5036059;28;20037;-72
2024/01/09 05:26:09;;;;;;;1.50;1.40;;;-5.30;99.90;;;;;;5035779;28;20450;-72
2024/01/09 05:28:34;;;;;;;1.65;1.55;;;-5.30;99.90;;;;;;5035683;28;20045;-71
2024/01/09 05:31:01;;;;;;;1.60;1.50;;;-5.60;99.90;;;;;;5035487;28;20132;-72
2024/01/09 05:33:27;;;;;;;1.60;1.50;;;-5.40;99.90;;;;;;5035633;28;20406;-72
2024/01/09 05:35:53;;;;;;;1.60;1.50;;;-5.40;99.90;;;;;;5035594;28;20095;-71
2024/01/09 05:38:19;;;;;;;1.70;1.60;;;-5.40;99.90;;;;;;5035587;28;20161;-71
2024/01/09 05:40:45;;;;;;;1.70;1.60;;;-5.40;99.90;;;;;;5035407;28;20073;-71
2024/01/09 05:43:10;;;;;;;1.70;1.60;;;-5.70;99.90;;;;;;5035208;28;20374;-72
2024/01/09 05:45:36;;;;;;;1.60;1.50;;;-5.40;99.90;;;;;;5035768;28;20061;-72
2024/01/09 05:48:02;;;;;;;1.60;1.50;;;-4.70;99.90;;;;;;5034991;28;20041;-72
2024/01/09 05:50:28;;;;;;;1.70;1.60;;;-5.40;99.90;;;;;;5035809;28;20143;-72
2024/01/09 05:52:53;;;;;;;1.60;1.50;;;;;;;;;;5035339;28;20037;-72
2024/01/09 05:55:19;;;;;;;1.60;1.50;;;-5.50;99.90;;;;;;5035218;28;20045;-73
2024/01/09 05:57:45;;;;;;;1.70;1.60;;;-5.50;99.90;;;;;;5035211;28;20037;-72
2024/01/09 06:00:11;;;;;;;1.70;1.60;;;-5.50;99.90;;;;;;5035076;28;20052;-72
2024/01/09 06:02:37;;;;;;;1.70;1.60;;;-5.40;99.90;;;;;;5035000;28;20129;-71
2024/01/09 06:05:02;;;;;;;1.70;1.60;;;-5.50;99.90;;;;;;5034781;28;20141;-71
2024/01/09 06:07:28;;;;;;;1.70;1.60;;;-5.50;99.90;;;;;;5034861;28;20052;-70
2024/01/09 06:09:54;;;;;;;1.60;1.50;;;-5.50;99.90;;;;;;5034985;28;20046;-71
2024/01/09 06:12:19;;;;;;;1.60;1.50;;;-5.80;99.90;;;;;;5034978;28;20485;-70
2024/01/09 06:14:45;;;;;;;1.60;1.50;;;-5.50;99.90;;;;;;5034560;28;20493;-70
2024/01/09 06:17:12;;;;;;;1.70;1.60;;;-6.10;99.90;;;;;;5016153;28;20442;-71
2024/01/09 06:19:37;;;;;;;;;;;-5.70;99.90;;;;;;5035288;28;20048;-70
2024/01/09 06:22:03;;;;;;;1.60;1.50;;;-5.50;99.90;;;;;;5034683;28;20262;-70
2024/01/09 06:24:28;;;;;;;1.70;1.60;;;-5.60;99.90;;;;;;5034602;28;20564;-73
2024/01/09 06:26:54;;;;;;;1.70;1.60;;;-5.60;99.90;;;;;;5034679;28;20107;-69
2024/01/09 06:29:21;;;;;;;1.70;1.60;;;-5.60;99.90;;;;;;5034544;28;20037;-77
2024/01/09 06:31:46;;;;;;;;;;;-5.90;99.90;;;;;;5034946;28;20042;-72
2024/01/09 06:34:12;;;;;;;1.50;1.40;;;-5.60;99.90;;;;;;5034543;28;19921;-71
2024/01/09 06:36:38;;;;;;;1.70;1.60;;;-5.60;99.90;;;;;;5034448;28;20135;-71
2024/01/09 06:39:03;;;;;;;1.70;1.60;;;-5.60;99.90;;;;;;5034437;28;20045;-74
2024/01/09 06:41:29;;;;;;;1.50;1.40;;;-6.00;99.90;;;;;;5034226;28;20041;-74
2024/01/09 06:43:54;;;;;;;1.60;1.50;;;-5.60;99.90;;;;;;5034255;28;20440;-72
2024/01/09 06:46:20;;;;;;;1.70;1.60;;;-5.60;99.90;;;;;;5034695;28;20045;-71
2024/01/09 06:48:45;;;;;;;1.67;1.57;;;-5.60;99.90;;;;;;5034659;28;20081;-71
2024/01/09 06:51:12;;;;;;;1.70;1.60;;;-5.60;99.90;;;;;;5033977;28;20469;-71
2024/01/09 06:53:38;;;;;;;1.60;1.50;;;-5.60;99.90;;;;;;5034059;28;20128;-71
2024/01/09 06:56:05;;;;;;;1.70;1.60;;;-5.60;99.90;;;;;;5034115;28;20092;-70
2024/01/09 06:58:30;;;;;;;1.70;1.60;;;-5.60;99.90;;;;;;5033987;28;20047;-70
2024/01/09 07:00:56;;;;;;;1.70;1.60;;;-5.60;99.90;;;;;;5034017;28;20042;-71
2024/01/09 07:03:22;;;;;;;1.80;1.70;;;-5.60;99.90;;;;;;5033938;28;20053;-69
2024/01/09 07:05:47;;;;;;;1.70;1.60;;;-5.60;99.90;;;;;;5033893;28;20054;-69
2024/01/09 07:08:13;;;;;;;1.70;1.60;;;;;;;;;;5033605;28;20482;-72
2024/01/09 07:10:39;;;;;;;1.60;1.50;;;-5.60;99.90;;;;;;5033730;28;20058;-73
2024/01/09 07:13:05;;;;;;;1.70;1.60;;;-5.60;99.90;;;;;;5033811;28;20053;-71
2024/01/09 07:15:30;;;;;;;1.70;1.60;;;-6.00;99.90;;;;;;5033657;28;20593;-72
2024/01/09 07:17:56;;;;;;;1.60;1.50;;;-6.00;99.90;;;;;;5033637;28;20128;-69
2024/01/09 07:20:21;;;;;;;1.60;1.50;;;-6.10;99.90;;;;;;5033585;28;20037;-74
2024/01/09 07:22:48;;;;;;;1.70;1.60;;;-5.60;99.90;;;;;;5033672;28;20052;-73
2024/01/09 07:25:14;;;;;;;1.70;1.60;;;-5.60;99.90;;;;;;5033609;28;20049;-74
2024/01/09 07:27:39;;;;;;;1.60;1.50;;;-5.40;99.90;;;;;;5033277;28;20111;-73
2024/01/09 07:30:06;;;;;;;1.70;1.60;;;-5.60;99.90;;;;;;5033531;28;20478;-74
2024/01/09 07:32:31;;;;;;;1.70;1.60;;;-5.60;99.90;;;;;;5033469;28;20049;-71
2024/01/09 07:34:57;;;;;;;1.60;1.50;;;-4.30;99.90;;;;;;5033725;28;20095;-73
2024/01/09 07:37:23;;;;;;;1.63;1.53;;;-5.90;99.90;;;;;;5033308;28;20081;-74
2024/01/09 07:39:48;;;;;;;3.83;3.53;;;-5.60;99.90;;;;;;5033423;28;20056;-72
2024/01/09 07:42:14;;;;;;;1.70;1.60;;;-6.10;99.90;;;;;;5032213;28;20121;-74
2024/01/09 07:44:40;;;;;;;1.70;1.60;;;-5.60;99.90;;;;;;5033555;28;20059;-73
2024/01/09 07:47:07;;;;;;;1.70;1.60;;;-5.60;99.90;;;;;;5033787;28;20042;-74
2024/01/09 07:49:33;;;;;;;1.70;1.60;;;-6.20;99.90;;;;;;5033622;28;20388;-72
2024/01/09 07:51:59;;;;;;;1.60;1.50;;;-5.60;99.90;;;;;;5033074;28;20124;-73
2024/01/09 07:54:24;;;;;;;1.67;1.57;;;-5.60;99.90;;;;;;5033283;28;20092;-74
2024/01/09 07:56:50;;;;;;;1.70;1.60;;;-5.60;99.90;;;;;;5033366;28;20042;-73
2024/01/09 07:59:16;;;;;;;1.60;1.50;;;-5.70;99.90;;;;;;5015614;28;20076;-73
2024/01/09 08:01:42;;;;;;;1.70;1.60;;;-5.60;99.90;;;;;;5033324;28;20049;-73
2024/01/09 08:04:07;;;;;;;1.60;1.50;;;-5.60;99.90;;;;;;5033331;28;20057;-72
2024/01/09 08:06:33;;;;;;;1.70;1.60;;;-5.60;99.90;;;;;;5033112;28;20171;-72
2024/01/09 08:08:59;;;;;;;1.53;1.43;;;-5.60;99.90;;;;;;5033213;28;20057;-72
2024/01/09 08:11:24;;;;;;;1.60;1.50;;;-6.00;99.90;;;;;;5033120;28;20124;-72
2024/01/09 08:13:50;;;;;;;1.60;1.50;;;-5.30;99.90;;;;;;5033069;28;20539;-74
2024/01/09 08:16:16;;;;;;;1.70;1.60;;;-6.10;99.90;;;;;;5033018;28;20081;-74
2024/01/09 08:18:41;;;;;;;1.60;1.50;;;-5.90;99.90;;;;;;5033320;28;20481;-76
2024/01/09 08:21:07;;;;;;;1.60;1.50;;;-5.80;99.90;;;;;;5033077;28;20482;-72
2024/01/09 08:23:33;;;;;;;1.80;1.70;;;-6.10;99.90;;;;;;5032994;28;20049;-74
2024/01/09 08:25:58;;;;;;;1.60;1.50;;;-5.60;99.90;;;;;;5033034;28;20049;-74
2024/01/09 08:28:24;;;;;;;1.80;1.70;;;-5.80;99.90;;;;;;5033016;28;20038;-74
2024/01/09 08:30:50;;;;;;;1.60;1.50;;;-5.50;99.90;;;;;;5032781;28;20543;-72
2024/01/09 08:33:15;;;;;;;1.80;1.70;;;-5.50;99.90;;;;;;5033057;28;20034;-73
2024/01/09 08:35:43;;;;;;;1.80;1.70;;;-5.50;99.90;;;;;;5033267;28;20048;-74
2024/01/09 08:38:10;;;;;;;1.70;1.60;;;-5.50;99.90;;;;;;5032873;28;20100;-73
2024/01/09 08:40:35;;;;;;;1.70;1.60;;;-5.40;99.90;;;;;;5034751;28;20390;-74
2024/01/09 08:43:01;;;;;;;1.80;1.70;;;-3.00;99.90;;;;;;5036611;28;20046;-73
2024/01/09 08:45:26;;;;;;;1.70;1.60;;;-5.80;99.90;;;;;;5036805;28;20049;-74
2024/01/09 08:47:52;;;;;;;1.70;1.60;;;-5.40;99.90;;;;;;5036344;28;20088;-74
2024/01/09 08:50:17;;;;;;;1.60;1.50;;;-5.30;99.90;;;;;;5018776;28;20103;-72
2024/01/09 08:52:43;;;;;;;1.70;1.60;;;-3.90;99.90;;;;;;5036374;28;20367;-74
2024/01/09 08:55:09;;;;;;;1.70;1.60;;;-5.90;99.90;;;;;;5036382;28;20045;-74
2024/01/09 08:57:34;;;;;;;1.70;1.60;;;-5.30;99.90;;;;;;5036394;28;20064;-74
2024/01/09 09:00:00;;;;;;;1.60;1.50;;;-5.60;99.90;;;;;;5036226;28;20131;-72
2024/01/09 09:02:26;;;;;;;1.70;1.60;;;-5.20;99.90;;;;;;5036263;28;20042;-73
2024/01/09 09:04:51;;;;;;;1.90;1.80;;;-5.20;99.90;;;;;;5036055;28;20046;-77
2024/01/09 09:07:18;;;;;;;1.60;1.50;;;-5.60;99.90;;;;;;5036335;28;20053;-79
2024/01/09 09:09:44;;;;;;;1.80;1.70;;;-5.10;99.90;;;;;;5036401;28;20041;-73
2024/01/09 09:12:11;;;;;;;1.70;1.60;;;-5.10;99.90;;;;;;5036050;28;20037;-76
2024/01/09 09:14:37;;;;;;;1.80;1.70;;;-5.20;99.90;;;;;;5035829;28;20124;-72
2024/01/09 09:17:02;;;;;;;1.70;1.60;;;-5.00;99.90;;;;;;5036508;28;20137;-69
2024/01/09 09:19:30;;;;;;;1.60;1.50;;;-4.90;99.90;;;;;;5035811;28;20038;-70
2024/01/09 09:21:56;;;;;;;1.60;1.50;;;-4.90;99.90;;;;;;5036012;28;20056;-71
2024/01/09 09:24:21;;;;;;;1.70;1.60;;;-4.90;99.90;;;;;;5035919;28;20503;-71
2024/01/09 09:26:47;;;;;;;1.60;1.50;;;-4.80;99.90;;;;;;5035876;28;20065;-71
2024/01/09 09:29:13;;;;;;;1.60;1.50;;;-4.80;99.90;;;;;;5035747;28;20045;-77
2024/01/09 09:31:38;;;;;;;1.70;1.60;;;-4.80;99.90;;;;;;5036144;28;20041;-76
2024/01/09 09:34:04;;;;;;;1.60;1.50;;;-4.70;99.90;;;;;;5035768;28;20056;-75
2024/01/09 09:36:29;;;;;;;1.70;1.60;;;-4.30;99.90;;;;;;5035515;28;20043;-75
2024/01/09 09:38:55;;;;;;;1.60;1.50;;;-5.00;99.90;;;;;;5035658;28;20049;-76
2024/01/09 09:41:21;;;;;;;1.50;1.40;;;-5.00;99.90;;;;;;5034357;28;20478;-74
2024/01/09 09:43:55;;;;;;;1.70;1.60;;;-4.50;99.90;;;;;;5035250;28;20134;-73
2024/01/09 09:46:26;;;;;;;1.70;1.60;;;-4.50;99.90;;;;;;5035095;28;20132;-80
2024/01/09 09:48:53;;;;;;;1.60;1.50;;;-4.60;99.90;;;;;;5035793;28;20128;-75
2024/01/09 09:51:23;;;;;;;1.60;1.50;;;-4.40;99.90;;;;;;5035033;28;20053;-74
2024/01/09 09:53:50;;;;;;;1.70;1.60;;;-4.40;99.90;;;;;;5035019;28;20486;-75
2024/01/09 09:56:16;;;;;;;;;;;-4.30;99.90;;;;;;5035406;28;20041;-75
2024/01/09 09:58:42;;;;;;;1.60;1.50;;;-4.70;99.90;;;;;;5034808;28;19925;-78
2024/01/09 10:01:11;;;;;;;1.60;1.50;;;-4.30;99.90;;;;;;5035098;28;20097;-77
2024/01/09 10:03:49;;;;;;;1.50;1.40;;;-4.20;99.90;;;;;;5035396;28;20091;-75
2024/01/09 10:06:17;;;;;;;1.50;1.40;;;-4.20;99.90;;;;;;5034875;28;20128;-75
2024/01/09 10:08:46;;;;;;;1.60;1.50;;;-4.10;99.90;;;;;;5034851;28;20045;-77
2024/01/09 10:11:11;;;;;;;1.60;1.50;;;-4.10;99.90;;;;;;5033824;28;20076;-75
2024/01/09 10:13:39;;;;;;;1.60;1.50;;;-4.00;99.90;;;;;;5034774;28;20045;-78
2024/01/09 10:16:05;;;;;;;1.60;1.50;;;-4.00;99.90;;;;;;5001065;28;20057;-73
2024/01/09 10:18:31;;;;;;;1.60;1.50;;;-4.00;99.90;;;;;;5034926;28;20127;-74
2024/01/09 10:21:00;;;;;;;1.52;1.42;;;-3.90;99.90;;;;;;5034438;28;20038;-75
2024/01/09 10:23:26;;;;;;;1.60;1.50;;;-3.90;99.90;;;;;;5034679;28;20050;-68
2024/01/09 10:25:53;;;;;;;1.50;1.40;;;-3.80;99.90;;;;;;5034688;28;20434;-69
2024/01/09 10:28:19;;;;;;;1.60;1.50;;;-3.80;99.90;;;;;;5034589;28;20045;-73
2024/01/09 10:30:45;;;;;;;1.60;1.50;;;-3.70;99.90;;;;;;5034622;28;20110;-75
2024/01/09 10:33:12;;;;;;;1.60;1.50;;;-3.60;99.90;;;;;;5034387;28;20045;-75
2024/01/09 10:35:38;;;;;;;1.52;1.42;;;-3.60;99.90;;;;;;5034221;28;20091;-74
2024/01/09 10:38:04;;;;;;;1.60;1.50;;;-3.60;99.90;;;;;;5047623;28;20056;-75
2024/01/09 10:40:30;;;;;;;1.60;1.50;;;-3.50;99.90;;;;;;5051521;28;20041;-74
2024/01/09 10:42:56;;;;;;;1.60;1.50;;;-3.50;99.90;;;;;;5052482;28;20041;-73
2024/01/09 10:45:26;;;;;;;1.60;1.50;;;-3.30;99.90;;;;;;5052905;28;20056;-76
2024/01/09 10:47:53;;;;;;;1.70;1.60;;;-3.40;99.90;;;;;;5034146;28;20045;-73
2024/01/09 10:50:30;;;;;;;1.55;1.45;;;-3.30;99.90;;;;;;5150788;27;1216081;-73
2024/01/09 10:52:56;;;;;;;1.70;1.60;;;-3.20;99.90;;;;;;5172119;27;20039;-72
2024/01/09 10:55:23;;;;;;;1.60;1.50;;;-3.20;99.90;;;;;;5172502;27;20090;-74
2024/01/09 10:57:49;;;;;;;1.60;1.50;;;-3.20;99.90;;;;;;5172759;27;20046;-73
2024/01/09 11:00:16;;;;;;;1.50;1.40;;;-3.10;99.90;;;;;;5172938;27;20042;-73
2024/01/09 11:02:41;;;;;;;1.73;1.63;;;-3.20;99.90;;;;;;5173263;27;20384;-72
2024/01/09 11:05:10;;;;;;;1.63;1.53;;;-3.10;99.90;;;;;;5154664;27;20034;-73
2024/01/09 11:07:37;;;;;;;1.50;1.40;;;-3.00;99.90;;;;;;5173103;27;20125;-74
2024/01/09 11:10:04;;;;;;;1.60;1.50;;;-3.00;99.90;;;;;;5173017;27;20095;-80
2024/01/09 11:12:34;;;;;;;1.50;1.40;;;-3.00;99.90;;;;;;5173398;27;20045;-77
2024/01/09 11:15:15;;;;;;;1.50;1.40;;;-3.10;99.90;;;;;;5178229;27;20049;-76
2024/01/09 11:17:44;;;;;;;1.70;1.60;;;-2.90;99.90;;;;;;5178383;27;20125;-79
2024/01/09 11:20:11;;;;;;;1.48;1.38;;;-2.00;99.90;;;;;;5173076;27;20039;-72
2024/01/09 11:22:37;;;;;;;1.50;1.40;;;-2.70;99.90;;;;;;5173210;27;20397;-74
2024/01/09 11:25:05;;;;;;;1.55;1.45;;;-2.70;99.90;;;;;;5172726;27;20409;-72
2024/01/09 11:27:41;;;;;;;1.75;1.50;;;-2.60;99.90;;;;;;5172715;27;20043;-73
2024/01/09 11:30:09;;;;;;;1.50;1.40;;;-2.60;99.90;;;;;;5172567;27;20039;-75
2024/01/09 11:32:37;;;;;;;1.50;1.40;;;-2.50;99.90;;;;;;5172556;27;20055;-73
2024/01/09 11:35:09;;;;;;;1.50;1.40;;;-2.50;99.90;;;;;;5172549;27;20058;-77
2024/01/09 11:37:38;;;;;;;1.50;1.40;;;-2.40;99.90;;;;;;5172248;27;20505;-74
2024/01/09 11:40:05;;;;;;;2.20;2.10;;;-2.40;99.90;;;;;;5172312;27;20489;-73
2024/01/09 11:42:31;;;;;;;1.40;1.30;;;-2.30;99.90;;;;;;5172665;27;20050;-77
2024/01/09 11:44:57;;;;;;;1.50;1.40;;;-2.30;99.90;;;;;;5172374;27;20103;-77
2024/01/09 11:47:23;;;;;;;1.45;1.35;;;-2.20;99.90;;;;;;5172136;27;20046;-78
2024/01/09 11:49:49;;;;;;;1.40;1.30;;;-2.20;99.90;;;;;;5171892;27;20054;-77
2024/01/09 11:52:14;;;;;;;1.60;1.50;;;-2.10;99.90;;;;;;5172235;27;20125;-75
2024/01/09 11:54:42;;;;;;;1.50;1.40;;;-2.10;99.90;;;;;;5172365;27;20106;-76
2024/01/09 11:57:09;;;;;;;1.40;1.30;;;-2.00;99.90;;;;;;5172359;27;20109;-78
2024/01/09 11:59:34;;;;;;;1.58;1.48;;;-1.90;99.90;;;;;;5172113;27;20125;-76
2024/01/09 12:02:00;;;;;;;1.50;1.40;;;-2.00;99.90;;;;;;5157342;27;20081;-75
2024/01/09 12:04:28;;;;;;;1.50;1.40;;;-1.90;99.90;;;;;;5158509;27;20174;-74
2024/01/09 12:06:54;;;;;;;1.50;1.40;;;-1.90;99.90;;;;;;5158129;27;20046;-77
2024/01/09 12:09:19;;;;;;;1.42;1.33;;;-1.90;99.90;;;;;;5139571;27;20462;-76
2024/01/09 12:11:45;;;;;;;1.40;1.30;;;-2.50;99.90;;;;;;5157837;27;20397;-76
2024/01/09 12:14:11;;;;;;;1.50;1.40;;;-1.80;99.90;;;;;;5139476;27;20035;-77
2024/01/09 12:16:37;;;;;;;1.50;1.40;;;-1.80;99.90;;;;;;5158379;27;20047;-74
2024/01/09 12:19:03;;;;;;;1.50;1.40;;;-1.70;99.90;;;;;;5157974;27;20591;-75
2024/01/09 12:21:31;;;;;;;1.40;1.30;;;-1.70;99.90;;;;;;5157854;27;20050;-76
2024/01/09 12:23:59;;;;;;;1.50;1.40;;;-1.70;99.90;;;;;;5157817;27;20042;-76
2024/01/09 12:26:28;;;;;;;1.40;1.30;;;-1.70;99.90;;;;;;5157685;27;20513;-73
2024/01/09 12:28:55;;;;;;;1.50;1.40;;;-1.70;99.90;;;;;;5157526;27;20039;-68
2024/01/09 12:31:22;;;;;;;;;;;-1.60;99.90;;;;;;5158077;27;20125;-69
2024/01/09 12:33:48;;;;;;;1.40;1.30;;;-1.60;99.90;;;;;;5157621;27;19919;-70
2024/01/09 12:36:14;;;;;;;1.40;1.30;;;-1.60;99.90;;;;;;5157542;27;20043;-74
2024/01/09 12:38:41;;;;;;;3.53;3.22;;;-1.50;99.90;;;;;;5157591;27;20042;-75
2024/01/09 12:41:06;;;;;;;1.40;1.30;;;-1.50;99.90;;;;;;5157254;27;20063;-76
2024/01/09 12:43:39;;;;;;;1.40;1.30;;;-1.50;99.90;;;;;;5157364;27;20047;-69
2024/01/09 12:46:05;;;;;;;1.30;1.20;;;-1.40;99.90;;;;;;5157406;27;20054;-69